sensor_id;sensor_type;location;lat;lon;timestamp;P1;durP1;ratioP1;P2;durP2;ratioP2
16839;SDS011;8536;52.150;11.572;2022-07-22T00:00:22;6.50;;;5.90;;
16839;SDS011;8536;52.150;11.572;2022-07-22T00:02:48;6.60;;;6.03;;
16839;SDS011;8536;52.150;11.572;2022-07-22T00:05:15;6.57;;;6.07;;
16839;SDS011;8536;52.150;11.572;2022-07-22T00:07:41;6.60;;;6.03;;
16839;SDS011;8536;52.150;11.572;2022-07-22T00:10:08;6.63;;;6.13;;
16839;SDS011;8536;52.150;11.572;2022-07-22T00:12:37;6.82;;;6.18;;
16839;SDS011;8536;52.150;11.572;2022-07-22T00:15:05;6.30;;;5.80;;
16839;SDS011;8536;52.150;11.572;2022-07-22T00:17:32;5.43;;;5.03;;
16839;SDS011;8536;52.150;11.572;2022-07-22T00:19:58;6.05;;;5.55;;
16839;SDS011;8536;52.150;11.572;2022-07-22T00:22:26;6.72;;;6.03;;
16839;SDS011;8536;52.150;11.572;2022-07-22T00:24:52;6.72;;;6.13;;
16839;SDS011;8536;52.150;11.572;2022-07-22T00:27:18;8.38;;;6.55;;
16839;SDS011;8536;52.150;11.572;2022-07-22T00:29:45;6.10;;;5.60;;
16839;SDS011;8536;52.150;11.572;2022-07-22T00:32:11;6.68;;;6.18;;
16839;SDS011;8536;52.150;11.572;2022-07-22T00:34:38;6.32;;;5.82;;
16839;SDS011;8536;52.150;11.572;2022-07-22T00:37:04;6.90;;;6.20;;
16839;SDS011;8536;52.150;11.572;2022-07-22T00:39:32;6.50;;;6.00;;
16839;SDS011;8536;52.150;11.572;2022-07-22T00:41:59;7.88;;;6.43;;
16839;SDS011;8536;52.150;11.572;2022-07-22T00:44:26;6.47;;;5.95;;
16839;SDS011;8536;52.150;11.572;2022-07-22T00:46:53;6.45;;;5.85;;
16839;SDS011;8536;52.150;11.572;2022-07-22T00:49:19;6.25;;;5.65;;
16839;SDS011;8536;52.150;11.572;2022-07-22T00:51:46;6.07;;;5.50;;
16839;SDS011;8536;52.150;11.572;2022-07-22T00:54:13;6.28;;;5.78;;
16839;SDS011;8536;52.150;11.572;2022-07-22T00:56:40;6.55;;;6.03;;
16839;SDS011;8536;52.150;11.572;2022-07-22T00:59:07;6.70;;;6.15;;
16839;SDS011;8536;52.150;11.572;2022-07-22T01:01:35;6.63;;;6.07;;
16839;SDS011;8536;52.150;11.572;2022-07-22T01:04:01;6.97;;;6.35;;
16839;SDS011;8536;52.150;11.572;2022-07-22T01:06:29;6.10;;;5.60;;
16839;SDS011;8536;52.150;11.572;2022-07-22T01:08:56;6.53;;;6.03;;
16839;SDS011;8536;52.150;11.572;2022-07-22T01:11:24;6.88;;;6.28;;
16839;SDS011;8536;52.150;11.572;2022-07-22T01:13:51;7.95;;;7.15;;
16839;SDS011;8536;52.150;11.572;2022-07-22T01:16:18;8.18;;;7.03;;
16839;SDS011;8536;52.150;11.572;2022-07-22T01:18:45;7.22;;;6.50;;
16839;SDS011;8536;52.150;11.572;2022-07-22T01:21:12;7.30;;;6.68;;
16839;SDS011;8536;52.150;11.572;2022-07-22T01:23:39;7.25;;;6.65;;
16839;SDS011;8536;52.150;11.572;2022-07-22T01:26:06;7.43;;;6.72;;
16839;SDS011;8536;52.150;11.572;2022-07-22T01:28:32;7.90;;;7.22;;
16839;SDS011;8536;52.150;11.572;2022-07-22T01:30:59;7.72;;;7.13;;
16839;SDS011;8536;52.150;11.572;2022-07-22T01:33:26;8.40;;;7.60;;
16839;SDS011;8536;52.150;11.572;2022-07-22T01:35:52;7.47;;;6.78;;
16839;SDS011;8536;52.150;11.572;2022-07-22T01:38:19;8.70;;;7.82;;
16839;SDS011;8536;52.150;11.572;2022-07-22T01:40:46;8.98;;;7.28;;
16839;SDS011;8536;52.150;11.572;2022-07-22T01:43:12;7.43;;;6.72;;
16839;SDS011;8536;52.150;11.572;2022-07-22T01:45:44;8.23;;;7.53;;
16839;SDS011;8536;52.150;11.572;2022-07-22T01:48:11;7.20;;;6.57;;
16839;SDS011;8536;52.150;11.572;2022-07-22T01:50:37;9.23;;;8.32;;
16839;SDS011;8536;52.150;11.572;2022-07-22T01:53:04;9.25;;;8.45;;
16839;SDS011;8536;52.150;11.572;2022-07-22T01:55:30;8.27;;;7.57;;
16839;SDS011;8536;52.150;11.572;2022-07-22T01:57:57;8.35;;;7.55;;
16839;SDS011;8536;52.150;11.572;2022-07-22T02:00:23;8.57;;;7.78;;
16839;SDS011;8536;52.150;11.572;2022-07-22T02:02:50;9.40;;;8.48;;
16839;SDS011;8536;52.150;11.572;2022-07-22T02:05:16;7.95;;;7.25;;
16839;SDS011;8536;52.150;11.572;2022-07-22T02:07:43;8.57;;;7.78;;
16839;SDS011;8536;52.150;11.572;2022-07-22T02:10:09;7.32;;;6.72;;
16839;SDS011;8536;52.150;11.572;2022-07-22T02:12:36;7.78;;;7.13;;
16839;SDS011;8536;52.150;11.572;2022-07-22T02:15:02;8.50;;;7.72;;
16839;SDS011;8536;52.150;11.572;2022-07-22T02:17:29;7.80;;;7.10;;
16839;SDS011;8536;52.150;11.572;2022-07-22T02:19:56;7.97;;;7.30;;
16839;SDS011;8536;52.150;11.572;2022-07-22T02:22:22;8.77;;;7.97;;
16839;SDS011;8536;52.150;11.572;2022-07-22T02:24:49;7.95;;;7.32;;
16839;SDS011;8536;52.150;11.572;2022-07-22T02:27:15;8.00;;;7.30;;
16839;SDS011;8536;52.150;11.572;2022-07-22T02:29:42;8.50;;;7.70;;
16839;SDS011;8536;52.150;11.572;2022-07-22T02:32:08;7.63;;;6.93;;
16839;SDS011;8536;52.150;11.572;2022-07-22T02:34:35;7.00;;;6.50;;
16839;SDS011;8536;52.150;11.572;2022-07-22T02:37:01;7.40;;;6.68;;
16839;SDS011;8536;52.150;11.572;2022-07-22T02:39:28;6.85;;;6.30;;
16839;SDS011;8536;52.150;11.572;2022-07-22T02:41:55;8.30;;;7.63;;
16839;SDS011;8536;52.150;11.572;2022-07-22T02:44:21;7.55;;;6.85;;
16839;SDS011;8536;52.150;11.572;2022-07-22T02:46:48;7.57;;;6.97;;
16839;SDS011;8536;52.150;11.572;2022-07-22T02:49:14;8.73;;;7.15;;
16839;SDS011;8536;52.150;11.572;2022-07-22T02:51:41;6.95;;;6.35;;
16839;SDS011;8536;52.150;11.572;2022-07-22T02:54:07;7.68;;;6.97;;
16839;SDS011;8536;52.150;11.572;2022-07-22T02:56:34;7.97;;;7.28;;
16839;SDS011;8536;52.150;11.572;2022-07-22T02:59:00;7.97;;;7.22;;
16839;SDS011;8536;52.150;11.572;2022-07-22T03:01:27;7.88;;;7.25;;
16839;SDS011;8536;52.150;11.572;2022-07-22T03:03:53;9.15;;;8.40;;
16839;SDS011;8536;52.150;11.572;2022-07-22T03:06:20;7.97;;;7.15;;
16839;SDS011;8536;52.150;11.572;2022-07-22T03:08:49;8.10;;;7.35;;
16839;SDS011;8536;52.150;11.572;2022-07-22T03:11:15;8.55;;;7.75;;
16839;SDS011;8536;52.150;11.572;2022-07-22T03:13:42;8.23;;;7.50;;
16839;SDS011;8536;52.150;11.572;2022-07-22T03:16:09;7.20;;;6.60;;
16839;SDS011;8536;52.150;11.572;2022-07-22T03:18:36;8.82;;;8.00;;
16839;SDS011;8536;52.150;11.572;2022-07-22T03:21:02;7.88;;;7.15;;
16839;SDS011;8536;52.150;11.572;2022-07-22T03:23:29;7.45;;;6.75;;
16839;SDS011;8536;52.150;11.572;2022-07-22T03:25:55;7.47;;;6.88;;
16839;SDS011;8536;52.150;11.572;2022-07-22T03:28:23;8.05;;;7.28;;
16839;SDS011;8536;52.150;11.572;2022-07-22T03:30:49;7.40;;;6.80;;
16839;SDS011;8536;52.150;11.572;2022-07-22T03:33:15;8.40;;;7.60;;
16839;SDS011;8536;52.150;11.572;2022-07-22T03:35:42;8.30;;;7.60;;
16839;SDS011;8536;52.150;11.572;2022-07-22T03:38:08;8.25;;;7.55;;
16839;SDS011;8536;52.150;11.572;2022-07-22T03:40:35;8.40;;;7.70;;
16839;SDS011;8536;52.150;11.572;2022-07-22T03:43:01;8.07;;;7.18;;
16839;SDS011;8536;52.150;11.572;2022-07-22T03:45:28;8.32;;;7.63;;
16839;SDS011;8536;52.150;11.572;2022-07-22T03:47:54;8.52;;;7.82;;
16839;SDS011;8536;52.150;11.572;2022-07-22T03:50:24;7.88;;;7.18;;
16839;SDS011;8536;52.150;11.572;2022-07-22T03:52:50;8.13;;;7.28;;
16839;SDS011;8536;52.150;11.572;2022-07-22T03:55:17;8.65;;;7.93;;
16839;SDS011;8536;52.150;11.572;2022-07-22T03:57:44;8.50;;;7.60;;
16839;SDS011;8536;52.150;11.572;2022-07-22T04:00:10;7.75;;;7.13;;
16839;SDS011;8536;52.150;11.572;2022-07-22T04:02:37;7.85;;;7.18;;
16839;SDS011;8536;52.150;11.572;2022-07-22T04:05:03;8.30;;;7.50;;
16839;SDS011;8536;52.150;11.572;2022-07-22T04:07:30;7.53;;;6.93;;
16839;SDS011;8536;52.150;11.572;2022-07-22T04:09:57;7.32;;;6.72;;
16839;SDS011;8536;52.150;11.572;2022-07-22T04:12:32;7.32;;;6.72;;
16839;SDS011;8536;52.150;11.572;2022-07-22T04:15:00;7.07;;;6.47;;
16839;SDS011;8536;52.150;11.572;2022-07-22T04:17:27;7.28;;;6.68;;
16839;SDS011;8536;52.150;11.572;2022-07-22T04:19:53;7.78;;;7.07;;
16839;SDS011;8536;52.150;11.572;2022-07-22T04:22:20;7.70;;;7.10;;
16839;SDS011;8536;52.150;11.572;2022-07-22T04:24:46;7.68;;;6.97;;
16839;SDS011;8536;52.150;11.572;2022-07-22T04:27:13;7.20;;;6.60;;
16839;SDS011;8536;52.150;11.572;2022-07-22T04:29:39;7.50;;;6.90;;
16839;SDS011;8536;52.150;11.572;2022-07-22T04:32:05;7.43;;;6.82;;
16839;SDS011;8536;52.150;11.572;2022-07-22T04:34:32;7.28;;;6.63;;
16839;SDS011;8536;52.150;11.572;2022-07-22T04:36:58;6.78;;;6.15;;
16839;SDS011;8536;52.150;11.572;2022-07-22T04:39:25;6.63;;;6.05;;
16839;SDS011;8536;52.150;11.572;2022-07-22T04:41:51;7.00;;;6.40;;
16839;SDS011;8536;52.150;11.572;2022-07-22T04:44:18;6.00;;;5.50;;
16839;SDS011;8536;52.150;11.572;2022-07-22T04:46:45;5.90;;;5.50;;
16839;SDS011;8536;52.150;11.572;2022-07-22T04:49:12;6.45;;;5.85;;
16839;SDS011;8536;52.150;11.572;2022-07-22T04:51:39;6.90;;;5.85;;
16839;SDS011;8536;52.150;11.572;2022-07-22T04:54:06;6.07;;;5.57;;
16839;SDS011;8536;52.150;11.572;2022-07-22T04:56:32;5.53;;;5.13;;
16839;SDS011;8536;52.150;11.572;2022-07-22T04:58:59;6.55;;;5.95;;
16839;SDS011;8536;52.150;11.572;2022-07-22T05:01:26;5.28;;;4.82;;
16839;SDS011;8536;52.150;11.572;2022-07-22T05:03:53;5.15;;;4.75;;
16839;SDS011;8536;52.150;11.572;2022-07-22T05:06:19;5.13;;;4.55;;
16839;SDS011;8536;52.150;11.572;2022-07-22T05:08:46;5.03;;;4.63;;
16839;SDS011;8536;52.150;11.572;2022-07-22T05:11:12;4.72;;;4.28;;
16839;SDS011;8536;52.150;11.572;2022-07-22T05:13:39;5.13;;;4.68;;
16839;SDS011;8536;52.150;11.572;2022-07-22T05:16:05;4.03;;;3.72;;
16839;SDS011;8536;52.150;11.572;2022-07-22T05:18:32;5.47;;;4.93;;
16839;SDS011;8536;52.150;11.572;2022-07-22T05:21:00;4.32;;;3.95;;
16839;SDS011;8536;52.150;11.572;2022-07-22T05:23:27;5.00;;;4.47;;
16839;SDS011;8536;52.150;11.572;2022-07-22T05:25:54;4.22;;;3.92;;
16839;SDS011;8536;52.150;11.572;2022-07-22T05:28:21;4.10;;;3.70;;
16839;SDS011;8536;52.150;11.572;2022-07-22T05:30:47;4.25;;;3.95;;
16839;SDS011;8536;52.150;11.572;2022-07-22T05:33:14;12.00;;;3.30;;
16839;SDS011;8536;52.150;11.572;2022-07-22T05:35:40;3.80;;;3.50;;
16839;SDS011;8536;52.150;11.572;2022-07-22T05:38:06;4.18;;;3.80;;
16839;SDS011;8536;52.150;11.572;2022-07-22T05:40:33;4.03;;;3.72;;
16839;SDS011;8536;52.150;11.572;2022-07-22T05:42:59;5.00;;;4.32;;
16839;SDS011;8536;52.150;11.572;2022-07-22T05:45:26;4.45;;;4.07;;
16839;SDS011;8536;52.150;11.572;2022-07-22T05:47:52;4.43;;;4.13;;
16839;SDS011;8536;52.150;11.572;2022-07-22T05:50:19;4.72;;;4.32;;
16839;SDS011;8536;52.150;11.572;2022-07-22T05:52:45;4.65;;;4.25;;
16839;SDS011;8536;52.150;11.572;2022-07-22T05:55:12;4.60;;;4.20;;
16839;SDS011;8536;52.150;11.572;2022-07-22T05:57:38;4.82;;;4.47;;
16839;SDS011;8536;52.150;11.572;2022-07-22T06:00:05;3.70;;;3.40;;
16839;SDS011;8536;52.150;11.572;2022-07-22T06:02:32;4.25;;;3.85;;
16839;SDS011;8536;52.150;11.572;2022-07-22T06:04:59;3.95;;;3.65;;
16839;SDS011;8536;52.150;11.572;2022-07-22T06:07:28;3.83;;;3.53;;
16839;SDS011;8536;52.150;11.572;2022-07-22T06:09:55;3.80;;;3.50;;
16839;SDS011;8536;52.150;11.572;2022-07-22T06:12:22;3.67;;;3.38;;
16839;SDS011;8536;52.150;11.572;2022-07-22T06:14:48;4.20;;;3.80;;
16839;SDS011;8536;52.150;11.572;2022-07-22T06:17:15;3.80;;;3.50;;
16839;SDS011;8536;52.150;11.572;2022-07-22T06:19:41;3.58;;;3.28;;
16839;SDS011;8536;52.150;11.572;2022-07-22T06:22:08;3.80;;;3.50;;
16839;SDS011;8536;52.150;11.572;2022-07-22T06:24:35;2.97;;;2.78;;
16839;SDS011;8536;52.150;11.572;2022-07-22T06:27:02;3.50;;;3.22;;
16839;SDS011;8536;52.150;11.572;2022-07-22T06:29:28;3.40;;;3.10;;
16839;SDS011;8536;52.150;11.572;2022-07-22T06:31:55;3.80;;;3.50;;
16839;SDS011;8536;52.150;11.572;2022-07-22T06:34:21;3.60;;;3.30;;
16839;SDS011;8536;52.150;11.572;2022-07-22T06:36:48;3.42;;;3.22;;
16839;SDS011;8536;52.150;11.572;2022-07-22T06:39:14;3.55;;;3.25;;
16839;SDS011;8536;52.150;11.572;2022-07-22T06:41:41;3.80;;;3.50;;
16839;SDS011;8536;52.150;11.572;2022-07-22T06:44:07;3.55;;;3.25;;
16839;SDS011;8536;52.150;11.572;2022-07-22T06:46:34;3.38;;;3.17;;
16839;SDS011;8536;52.150;11.572;2022-07-22T06:49:03;3.20;;;3.00;;
16839;SDS011;8536;52.150;11.572;2022-07-22T06:51:29;2.97;;;2.78;;
16839;SDS011;8536;52.150;11.572;2022-07-22T06:53:56;2.53;;;2.38;;
16839;SDS011;8536;52.150;11.572;2022-07-22T06:56:22;2.63;;;2.50;;
16839;SDS011;8536;52.150;11.572;2022-07-22T06:58:49;2.08;;;1.98;;
16839;SDS011;8536;52.150;11.572;2022-07-22T07:01:15;1.90;;;1.80;;
16839;SDS011;8536;52.150;11.572;2022-07-22T07:03:42;2.20;;;2.10;;
16839;SDS011;8536;52.150;11.572;2022-07-22T07:06:09;2.45;;;2.25;;
16839;SDS011;8536;52.150;11.572;2022-07-22T07:08:40;1.80;;;1.70;;
16839;SDS011;8536;52.150;11.572;2022-07-22T07:11:07;1.90;;;1.80;;
16839;SDS011;8536;52.150;11.572;2022-07-22T07:13:34;1.63;;;1.52;;
16839;SDS011;8536;52.150;11.572;2022-07-22T07:16:00;1.70;;;1.60;;
16839;SDS011;8536;52.150;11.572;2022-07-22T07:18:27;1.80;;;1.70;;
16839;SDS011;8536;52.150;11.572;2022-07-22T07:20:53;1.92;;;1.83;;
16839;SDS011;8536;52.150;11.572;2022-07-22T07:23:20;2.15;;;2.00;;
16839;SDS011;8536;52.150;11.572;2022-07-22T07:25:47;2.30;;;2.17;;
16839;SDS011;8536;52.150;11.572;2022-07-22T07:28:13;3.03;;;2.72;;
16839;SDS011;8536;52.150;11.572;2022-07-22T07:30:40;2.58;;;2.38;;
16839;SDS011;8536;52.150;11.572;2022-07-22T07:33:07;3.15;;;2.95;;
16839;SDS011;8536;52.150;11.572;2022-07-22T07:35:33;3.10;;;2.90;;
16839;SDS011;8536;52.150;11.572;2022-07-22T07:38:00;3.97;;;3.40;;
16839;SDS011;8536;52.150;11.572;2022-07-22T07:40:26;4.25;;;3.70;;
16839;SDS011;8536;52.150;11.572;2022-07-22T07:42:53;4.30;;;3.90;;
16839;SDS011;8536;52.150;11.572;2022-07-22T07:45:27;3.85;;;3.55;;
16839;SDS011;8536;52.150;11.572;2022-07-22T07:47:54;2.97;;;2.65;;
16839;SDS011;8536;52.150;11.572;2022-07-22T07:50:21;3.15;;;2.90;;
16839;SDS011;8536;52.150;11.572;2022-07-22T07:52:47;2.97;;;2.72;;
16839;SDS011;8536;52.150;11.572;2022-07-22T07:55:18;2.78;;;2.50;;
16839;SDS011;8536;52.150;11.572;2022-07-22T07:57:46;2.83;;;2.50;;
16839;SDS011;8536;52.150;11.572;2022-07-22T08:00:16;2.53;;;2.33;;
16839;SDS011;8536;52.150;11.572;2022-07-22T08:02:46;2.38;;;2.17;;
16839;SDS011;8536;52.150;11.572;2022-07-22T08:05:13;2.42;;;2.22;;
16839;SDS011;8536;52.150;11.572;2022-07-22T08:07:40;2.55;;;2.35;;
16839;SDS011;8536;52.150;11.572;2022-07-22T08:10:08;3.30;;;3.00;;
16839;SDS011;8536;52.150;11.572;2022-07-22T08:12:54;2.90;;;2.70;;
16839;SDS011;8536;52.150;11.572;2022-07-22T08:15:24;3.40;;;3.10;;
16839;SDS011;8536;52.150;11.572;2022-07-22T08:17:54;3.20;;;3.00;;
16839;SDS011;8536;52.150;11.572;2022-07-22T08:20:20;3.20;;;2.95;;
16839;SDS011;8536;52.150;11.572;2022-07-22T08:22:48;4.15;;;2.70;;
16839;SDS011;8536;52.150;11.572;2022-07-22T08:25:15;3.40;;;3.10;;
16839;SDS011;8536;52.150;11.572;2022-07-22T08:27:41;3.03;;;2.83;;
16839;SDS011;8536;52.150;11.572;2022-07-22T08:30:08;3.40;;;3.10;;
16839;SDS011;8536;52.150;11.572;2022-07-22T08:32:35;3.63;;;3.33;;
16839;SDS011;8536;52.150;11.572;2022-07-22T08:35:02;3.58;;;3.28;;
16839;SDS011;8536;52.150;11.572;2022-07-22T08:37:30;3.95;;;3.50;;
16839;SDS011;8536;52.150;11.572;2022-07-22T08:39:56;3.33;;;3.10;;
16839;SDS011;8536;52.150;11.572;2022-07-22T08:42:24;4.60;;;3.65;;
16839;SDS011;8536;52.150;11.572;2022-07-22T08:44:52;3.25;;;2.90;;
16839;SDS011;8536;52.150;11.572;2022-07-22T08:47:22;3.55;;;3.25;;
16839;SDS011;8536;52.150;11.572;2022-07-22T08:50:07;3.63;;;3.35;;
16839;SDS011;8536;52.150;11.572;2022-07-22T08:52:34;3.63;;;3.33;;
16839;SDS011;8536;52.150;11.572;2022-07-22T08:55:04;4.10;;;3.33;;
16839;SDS011;8536;52.150;11.572;2022-07-22T08:57:32;2.63;;;2.42;;
16839;SDS011;8536;52.150;11.572;2022-07-22T08:59:59;3.38;;;3.08;;
16839;SDS011;8536;52.150;11.572;2022-07-22T09:02:27;3.00;;;2.75;;
16839;SDS011;8536;52.150;11.572;2022-07-22T09:04:55;2.60;;;2.40;;
16839;SDS011;8536;52.150;11.572;2022-07-22T09:07:33;2.80;;;2.60;;
16839;SDS011;8536;52.150;11.572;2022-07-22T09:10:13;2.15;;;2.05;;
16839;SDS011;8536;52.150;11.572;2022-07-22T09:12:54;3.22;;;2.72;;
16839;SDS011;8536;52.150;11.572;2022-07-22T09:15:27;2.08;;;1.98;;
16839;SDS011;8536;52.150;11.572;2022-07-22T09:17:55;2.83;;;2.63;;
16839;SDS011;8536;52.150;11.572;2022-07-22T09:20:29;2.30;;;2.08;;
16839;SDS011;8536;52.150;11.572;2022-07-22T09:22:55;2.63;;;2.42;;
16839;SDS011;8536;52.150;11.572;2022-07-22T09:25:32;2.65;;;2.45;;
16839;SDS011;8536;52.150;11.572;2022-07-22T09:30:40;3.13;;;2.83;;
16839;SDS011;8536;52.150;11.572;2022-07-22T09:33:12;2.80;;;2.60;;
16839;SDS011;8536;52.150;11.572;2022-07-22T09:35:39;3.53;;;3.22;;
16839;SDS011;8536;52.150;11.572;2022-07-22T09:38:15;4.10;;;3.70;;
16839;SDS011;8536;52.150;11.572;2022-07-22T09:40:47;4.05;;;3.75;;
16839;SDS011;8536;52.150;11.572;2022-07-22T09:43:15;4.07;;;3.78;;
16839;SDS011;8536;52.150;11.572;2022-07-22T09:45:47;4.40;;;4.10;;
16839;SDS011;8536;52.150;11.572;2022-07-22T09:48:21;3.60;;;3.30;;
16839;SDS011;8536;52.150;11.572;2022-07-22T09:50:48;3.47;;;3.17;;
16839;SDS011;8536;52.150;11.572;2022-07-22T09:53:15;3.83;;;3.53;;
16839;SDS011;8536;52.150;11.572;2022-07-22T09:55:43;3.88;;;3.58;;
16839;SDS011;8536;52.150;11.572;2022-07-22T09:58:10;3.65;;;3.35;;
16839;SDS011;8536;52.150;11.572;2022-07-22T10:00:39;3.83;;;3.53;;
16839;SDS011;8536;52.150;11.572;2022-07-22T10:03:08;3.70;;;3.40;;
16839;SDS011;8536;52.150;11.572;2022-07-22T10:05:39;3.63;;;3.42;;
16839;SDS011;8536;52.150;11.572;2022-07-22T10:08:07;3.60;;;3.22;;
16839;SDS011;8536;52.150;11.572;2022-07-22T10:10:35;2.97;;;2.78;;
16839;SDS011;8536;52.150;11.572;2022-07-22T10:13:04;3.60;;;3.30;;
16839;SDS011;8536;52.150;11.572;2022-07-22T10:15:32;3.55;;;3.35;;
16839;SDS011;8536;52.150;11.572;2022-07-22T10:18:02;3.55;;;3.25;;
16839;SDS011;8536;52.150;11.572;2022-07-22T10:20:52;2.88;;;2.67;;
16839;SDS011;8536;52.150;11.572;2022-07-22T10:23:26;3.60;;;3.15;;
16839;SDS011;8536;52.150;11.572;2022-07-22T10:25:54;2.72;;;2.55;;
16839;SDS011;8536;52.150;11.572;2022-07-22T10:28:23;3.08;;;2.88;;
16839;SDS011;8536;52.150;11.572;2022-07-22T10:30:51;2.88;;;2.67;;
16839;SDS011;8536;52.150;11.572;2022-07-22T10:33:18;2.38;;;2.17;;
16839;SDS011;8536;52.150;11.572;2022-07-22T10:38:22;3.13;;;2.83;;
16839;SDS011;8536;52.150;11.572;2022-07-22T10:40:49;3.08;;;2.88;;
16839;SDS011;8536;52.150;11.572;2022-07-22T10:46:05;3.25;;;3.05;;
16839;SDS011;8536;52.150;11.572;2022-07-22T10:53:58;3.03;;;2.83;;
16839;SDS011;8536;52.150;11.572;2022-07-22T10:56:30;2.83;;;2.63;;
16839;SDS011;8536;52.150;11.572;2022-07-22T10:58:59;3.33;;;3.13;;
16839;SDS011;8536;52.150;11.572;2022-07-22T11:01:43;3.10;;;2.90;;
16839;SDS011;8536;52.150;11.572;2022-07-22T11:04:13;3.00;;;2.80;;
16839;SDS011;8536;52.150;11.572;2022-07-22T11:06:45;3.08;;;2.88;;
16839;SDS011;8536;52.150;11.572;2022-07-22T11:09:13;3.13;;;2.90;;
16839;SDS011;8536;52.150;11.572;2022-07-22T11:11:45;3.65;;;3.35;;
16839;SDS011;8536;52.150;11.572;2022-07-22T11:14:17;3.70;;;3.40;;
16839;SDS011;8536;52.150;11.572;2022-07-22T11:16:57;3.40;;;3.10;;
16839;SDS011;8536;52.150;11.572;2022-07-22T11:19:25;4.10;;;3.75;;
16839;SDS011;8536;52.150;11.572;2022-07-22T11:21:56;4.10;;;3.78;;
16839;SDS011;8536;52.150;11.572;2022-07-22T11:24:24;4.00;;;3.70;;
16839;SDS011;8536;52.150;11.572;2022-07-22T11:26:52;4.30;;;3.92;;
16839;SDS011;8536;52.150;11.572;2022-07-22T11:29:28;3.83;;;3.53;;
16839;SDS011;8536;52.150;11.572;2022-07-22T11:31:56;3.85;;;3.55;;
16839;SDS011;8536;52.150;11.572;2022-07-22T11:34:24;3.70;;;3.40;;
16839;SDS011;8536;52.150;11.572;2022-07-22T11:36:51;4.40;;;4.07;;
16839;SDS011;8536;52.150;11.572;2022-07-22T11:39:20;4.03;;;3.72;;
16839;SDS011;8536;52.150;11.572;2022-07-22T11:41:49;3.78;;;3.47;;
16839;SDS011;8536;52.150;11.572;2022-07-22T11:44:17;3.95;;;3.58;;
16839;SDS011;8536;52.150;11.572;2022-07-22T11:46:48;4.30;;;3.90;;
16839;SDS011;8536;52.150;11.572;2022-07-22T11:49:16;3.95;;;3.30;;
16839;SDS011;8536;52.150;11.572;2022-07-22T11:51:44;6.28;;;3.70;;
16839;SDS011;8536;52.150;11.572;2022-07-22T11:54:11;4.10;;;3.80;;
16839;SDS011;8536;52.150;11.572;2022-07-22T11:56:38;4.28;;;3.97;;
16839;SDS011;8536;52.150;11.572;2022-07-22T11:59:05;4.22;;;3.92;;
16839;SDS011;8536;52.150;11.572;2022-07-22T12:01:33;5.18;;;4.45;;
16839;SDS011;8536;52.150;11.572;2022-07-22T12:04:05;4.25;;;3.95;;
16839;SDS011;8536;52.150;11.572;2022-07-22T12:06:36;4.80;;;4.20;;
16839;SDS011;8536;52.150;11.572;2022-07-22T12:09:06;4.50;;;4.10;;
16839;SDS011;8536;52.150;11.572;2022-07-22T12:11:45;4.40;;;4.10;;
16839;SDS011;8536;52.150;11.572;2022-07-22T12:14:17;4.53;;;4.22;;
16839;SDS011;8536;52.150;11.572;2022-07-22T12:17:07;4.32;;;3.88;;
16839;SDS011;8536;52.150;11.572;2022-07-22T12:19:33;4.35;;;4.00;;
16839;SDS011;8536;52.150;11.572;2022-07-22T12:22:02;4.15;;;3.83;;
16839;SDS011;8536;52.150;11.572;2022-07-22T12:24:38;4.22;;;3.92;;
16839;SDS011;8536;52.150;11.572;2022-07-22T12:27:18;4.38;;;3.92;;
16839;SDS011;8536;52.150;11.572;2022-07-22T12:29:48;3.88;;;3.67;;
16839;SDS011;8536;52.150;11.572;2022-07-22T12:34:55;4.28;;;3.88;;
16839;SDS011;8536;52.150;11.572;2022-07-22T12:37:29;3.55;;;3.28;;
16839;SDS011;8536;52.150;11.572;2022-07-22T12:40:19;3.83;;;3.53;;
16839;SDS011;8536;52.150;11.572;2022-07-22T12:42:59;3.88;;;3.58;;
16839;SDS011;8536;52.150;11.572;2022-07-22T12:45:30;3.20;;;3.00;;
16839;SDS011;8536;52.150;11.572;2022-07-22T12:50:27;3.78;;;3.47;;
16839;SDS011;8536;52.150;11.572;2022-07-22T12:55:42;4.40;;;3.45;;
16839;SDS011;8536;52.150;11.572;2022-07-22T12:58:33;3.33;;;3.03;;
16839;SDS011;8536;52.150;11.572;2022-07-22T13:01:00;3.30;;;3.10;;
16839;SDS011;8536;52.150;11.572;2022-07-22T13:03:27;4.30;;;2.90;;
16839;SDS011;8536;52.150;11.572;2022-07-22T13:05:57;3.75;;;3.20;;
16839;SDS011;8536;52.150;11.572;2022-07-22T13:08:24;3.60;;;3.40;;
16839;SDS011;8536;52.150;11.572;2022-07-22T13:10:55;4.22;;;3.35;;
16839;SDS011;8536;52.150;11.572;2022-07-22T13:13:22;3.75;;;3.33;;
16839;SDS011;8536;52.150;11.572;2022-07-22T13:15:49;3.55;;;3.25;;
16839;SDS011;8536;52.150;11.572;2022-07-22T13:18:16;3.22;;;2.92;;
16839;SDS011;8536;52.150;11.572;2022-07-22T13:20:43;3.60;;;3.30;;
16839;SDS011;8536;52.150;11.572;2022-07-22T13:23:10;3.50;;;3.20;;
16839;SDS011;8536;52.150;11.572;2022-07-22T13:25:36;3.67;;;3.10;;
16839;SDS011;8536;52.150;11.572;2022-07-22T13:28:03;3.42;;;3.13;;
16839;SDS011;8536;52.150;11.572;2022-07-22T13:30:30;3.40;;;3.20;;
16839;SDS011;8536;52.150;11.572;2022-07-22T13:32:56;4.38;;;3.97;;
16839;SDS011;8536;52.150;11.572;2022-07-22T13:35:23;4.32;;;4.03;;
16839;SDS011;8536;52.150;11.572;2022-07-22T13:37:50;4.03;;;3.72;;
16839;SDS011;8536;52.150;11.572;2022-07-22T13:40:16;3.65;;;3.40;;
16839;SDS011;8536;52.150;11.572;2022-07-22T13:42:42;3.88;;;3.47;;
16839;SDS011;8536;52.150;11.572;2022-07-22T13:45:09;3.55;;;3.25;;
16839;SDS011;8536;52.150;11.572;2022-07-22T13:47:39;3.50;;;3.20;;
16839;SDS011;8536;52.150;11.572;2022-07-22T13:50:06;3.00;;;2.80;;
16839;SDS011;8536;52.150;11.572;2022-07-22T13:52:33;3.70;;;3.40;;
16839;SDS011;8536;52.150;11.572;2022-07-22T13:55:00;3.45;;;3.00;;
16839;SDS011;8536;52.150;11.572;2022-07-22T13:57:29;2.95;;;2.75;;
16839;SDS011;8536;52.150;11.572;2022-07-22T13:59:56;3.15;;;2.70;;
16839;SDS011;8536;52.150;11.572;2022-07-22T14:02:23;3.92;;;3.33;;
16839;SDS011;8536;52.150;11.572;2022-07-22T14:04:50;5.22;;;3.00;;
16839;SDS011;8536;52.150;11.572;2022-07-22T14:07:16;2.97;;;2.78;;
16839;SDS011;8536;52.150;11.572;2022-07-22T14:09:43;4.55;;;3.40;;
16839;SDS011;8536;52.150;11.572;2022-07-22T14:12:09;3.33;;;3.03;;
16839;SDS011;8536;52.150;11.572;2022-07-22T14:14:36;4.25;;;3.85;;
16839;SDS011;8536;52.150;11.572;2022-07-22T14:17:02;4.47;;;4.05;;
16839;SDS011;8536;52.150;11.572;2022-07-22T14:19:29;3.67;;;3.38;;
16839;SDS011;8536;52.150;11.572;2022-07-22T14:21:56;3.97;;;3.67;;
16839;SDS011;8536;52.150;11.572;2022-07-22T14:24:22;4.30;;;3.30;;
16839;SDS011;8536;52.150;11.572;2022-07-22T14:26:49;3.40;;;3.20;;
16839;SDS011;8536;52.150;11.572;2022-07-22T14:29:15;3.80;;;3.50;;
16839;SDS011;8536;52.150;11.572;2022-07-22T14:31:42;4.05;;;3.72;;
16839;SDS011;8536;52.150;11.572;2022-07-22T14:34:08;3.70;;;3.40;;
16839;SDS011;8536;52.150;11.572;2022-07-22T14:36:35;3.55;;;3.25;;
16839;SDS011;8536;52.150;11.572;2022-07-22T14:39:02;3.90;;;3.50;;
16839;SDS011;8536;52.150;11.572;2022-07-22T14:41:28;4.40;;;4.00;;
16839;SDS011;8536;52.150;11.572;2022-07-22T14:43:55;3.75;;;3.45;;
16839;SDS011;8536;52.150;11.572;2022-07-22T14:46:22;3.70;;;3.30;;
16839;SDS011;8536;52.150;11.572;2022-07-22T14:48:49;3.67;;;3.40;;
16839;SDS011;8536;52.150;11.572;2022-07-22T14:51:19;4.22;;;3.40;;
16839;SDS011;8536;52.150;11.572;2022-07-22T14:53:47;3.13;;;2.92;;
16839;SDS011;8536;52.150;11.572;2022-07-22T14:56:14;3.95;;;3.58;;
16839;SDS011;8536;52.150;11.572;2022-07-22T14:58:40;3.60;;;3.30;;
16839;SDS011;8536;52.150;11.572;2022-07-22T15:01:07;3.95;;;3.40;;
16839;SDS011;8536;52.150;11.572;2022-07-22T15:03:33;3.60;;;3.13;;
16839;SDS011;8536;52.150;11.572;2022-07-22T15:06:00;3.75;;;3.35;;
16839;SDS011;8536;52.150;11.572;2022-07-22T15:08:26;3.50;;;3.20;;
16839;SDS011;8536;52.150;11.572;2022-07-22T15:10:53;3.60;;;3.30;;
16839;SDS011;8536;52.150;11.572;2022-07-22T15:13:19;3.75;;;3.45;;